Time;durP1;ratioP1;P1;durP2;ratioP2;P2;SDS_P1;SDS_P2;PMS_P1;PMS_P2;Temp;Humidity;BMP_temperature;BMP_pressure;BME280_temperature;BME280_humidity;BME280_pressure;Samples;Min_cycle;Max_cycle;Signal;HPM_P1;HPM_P2
2021/11/25 00:03:03;;;;;;;35.65;17.83;;;;;;;-0.78;100.00;97482.59;4992273;28;20165;-77
2021/11/25 00:05:57;;;;;;;46.92;20.35;;;;;;;-0.77;100.00;97463.75;4971168;28;20046;-77
2021/11/25 00:08:29;;;;;;;50.17;20.40;;;;;;;-0.69;100.00;97475.78;4995662;28;20462;-78
2021/11/25 00:10:58;;;;;;;55.88;22.25;;;;;;;-0.82;100.00;97460.22;4982465;28;20058;-78
2021/11/25 00:13:25;;;;;;;52.83;22.10;;;;;;;-0.74;100.00;97470.41;4980612;28;20046;-78
2021/11/25 00:15:54;;;;;;;51.50;21.92;;;;;;;-0.83;100.00;97445.34;4993207;28;20049;-77
2021/11/25 00:18:24;;;;;;;46.03;20.55;;;;;;;-0.82;100.00;97468.19;4994055;28;20491;-77
2021/11/25 00:21:17;;;;;;;43.30;19.92;;;;;;;-0.79;100.00;97462.38;4992825;28;20057;-77
2021/11/25 00:24:26;;;;;;;46.33;19.90;;;;;;;-0.95;100.00;97444.63;4995740;28;20070;-77
2021/11/25 00:27:21;;;;;;;52.60;22.00;;;;;;;-0.72;100.00;97470.97;4980852;28;20124;-77
2021/11/25 00:30:14;;;;;;;66.57;24.88;;;;;;;-1.09;100.00;97438.09;4985570;28;20039;-78
2021/11/25 00:33:04;;;;;;;91.95;27.95;;;;;;;-1.06;100.00;97440.25;4975173;28;20054;-78
2021/11/25 00:35:33;;;;;;;57.38;23.63;;;;;;;-1.11;100.00;97440.19;4999234;28;20081;-78
2021/11/25 00:38:00;;;;;;;52.85;23.20;;;;;;;-0.98;100.00;97456.56;4999059;28;20085;-77
2021/11/25 00:40:27;;;;;;;54.50;22.13;;;;;;;-0.94;100.00;97468.31;4999726;28;20482;-78
2021/11/25 00:43:03;;;;;;;47.15;22.23;;;;;;;-1.17;100.00;97438.50;4999385;28;20566;-77
2021/11/25 00:45:40;;;;;;;46.83;21.48;;;;;;;-1.07;100.00;97447.41;4981949;28;20056;-79
2021/11/25 00:48:27;;;;;;;47.33;20.92;;;;;;;-1.26;100.00;97430.94;4995048;28;20549;-77
2021/11/25 00:51:00;;;;;;;39.50;19.40;;;;;;;-1.22;100.00;97438.44;4982564;28;20421;-78
2021/11/25 00:53:43;;;;;;;48.20;20.00;;;;;;;-1.25;100.00;97442.38;4983585;28;20399;-78
2021/11/25 00:56:15;;;;;;;42.78;19.75;;;;;;;-1.34;100.00;97435.88;4997661;28;20609;-77
2021/11/25 00:58:51;;;;;;;47.10;20.17;;;;;;;-1.42;100.00;97425.69;4983167;28;20112;-78
2021/11/25 01:01:25;;;;;;;40.03;20.17;;;;;;;-1.31;100.00;97430.88;4996285;28;20045;-78
2021/11/25 01:04:03;;;;;;;42.20;20.05;;;;;;;-1.37;100.00;97404.53;4994218;28;20348;-77
2021/11/25 01:06:43;;;;;;;41.88;20.20;;;;;;;-1.03;100.00;97435.25;4984181;28;20042;-77
2021/11/25 01:09:10;;;;;;;43.33;20.65;;;;;;;-1.25;100.00;97397.25;4981888;28;20057;-78
2021/11/25 01:11:42;;;;;;;45.25;21.80;;;;;;;-1.13;100.00;97419.16;4983592;28;20094;-78
2021/11/25 01:14:12;;;;;;;47.60;20.77;;;;;;;-1.15;100.00;97418.63;4997668;28;20050;-78
2021/11/25 01:16:39;;;;;;;46.80;20.90;;;;;;;-1.08;100.00;97424.56;4997049;28;20227;-78
2021/11/25 01:19:06;;;;;;;44.63;21.50;;;;;;;-1.10;100.00;97404.59;4999399;28;20050;-78
2021/11/25 01:21:33;;;;;;;46.08;22.33;;;;;;;-1.11;100.00;97425.03;4998480;28;20054;-78
2021/11/25 01:24:05;;;;;;;44.03;20.98;;;;;;;-1.15;100.00;97413.31;4996042;28;20089;-78
2021/11/25 01:26:35;;;;;;;43.45;20.27;;;;;;;-1.18;100.00;97399.72;4979370;28;20091;-78
2021/11/25 01:29:05;;;;;;;44.13;20.65;;;;;;;-1.26;100.00;97390.31;4979196;28;20058;-77
2021/11/25 01:31:32;;;;;;;52.65;21.48;;;;;;;-1.73;100.00;97395.22;4996358;28;20042;-78
2021/11/25 01:34:06;;;;;;;43.70;20.48;;;;;;;-1.53;100.00;97392.88;4994225;28;20074;-77
2021/11/25 01:36:40;;;;;;;47.50;20.75;;;;;;;-1.61;100.00;97377.38;4992565;28;20066;-77
2021/11/25 01:39:25;;;;;;;47.15;20.27;;;;;;;-1.43;100.00;97392.22;4992748;28;20387;-77
2021/11/25 01:42:15;;;;;;;80.32;24.90;;;;;;;-1.41;100.00;97401.53;4993117;28;20045;-78
2021/11/25 01:44:54;;;;;;;46.55;21.23;;;;;;;-1.54;100.00;97393.91;4995435;28;20050;-77
2021/11/25 01:47:47;;;;;;;53.83;21.95;;;;;;;-1.88;100.00;97354.41;4992463;28;20050;-78
2021/11/25 01:50:33;;;;;;;69.03;25.10;;;;;;;-1.95;100.00;97365.16;4923542;29;20095;-78
2021/11/25 01:53:00;;;;;;;61.30;22.83;;;;;;;-1.88;100.00;97369.28;4922578;29;20051;-77
2021/11/25 01:55:28;;;;;;;48.10;20.25;;;;;;;-1.70;100.00;97375.38;4934498;29;20063;-78
2021/11/25 01:57:54;;;;;;;53.50;23.02;;;;;;;-1.59;100.00;97372.63;4935986;29;20078;-77
2021/11/25 02:00:37;;;;;;;47.22;21.55;;;;;;;-1.69;100.00;97379.63;4934265;29;20051;-77
2021/11/25 02:03:06;;;;;;;45.67;21.77;;;;;;;-1.74;100.00;97380.34;4919359;29;20059;-79
2021/11/25 02:05:33;;;;;;;44.15;20.65;;;;;;;-1.66;100.00;97387.91;4935344;29;20515;-77
2021/11/25 02:08:00;;;;;;;51.85;22.10;;;;;;;-1.60;100.00;97384.25;4933056;29;20544;-77
2021/11/25 02:10:27;;;;;;;48.67;22.08;;;;;;;-1.63;100.00;97376.00;4932145;29;20047;-78
2021/11/25 02:12:55;;;;;;;47.25;22.40;;;;;;;-1.64;100.00;97369.88;4931595;29;20143;-77
2021/11/25 02:15:21;;;;;;;47.35;22.23;;;;;;;-1.70;100.00;97373.50;4916422;29;20059;-78
2021/11/25 02:17:48;;;;;;;47.90;22.70;;;;;;;-1.79;100.00;97364.38;4926935;29;20047;-78
2021/11/25 02:20:15;;;;;;;52.13;23.70;;;;;;;-1.64;100.00;97377.84;4950675;29;20051;-78
2021/11/25 02:22:43;;;;;;;48.33;22.42;;;;;;;-1.65;100.00;97370.94;4951591;29;20058;-78
2021/11/25 02:25:12;;;;;;;50.22;22.02;;;;;;;-1.67;100.00;97348.34;4951942;28;20050;-77
2021/11/25 02:27:41;;;;;;;43.55;20.90;;;;;;;-1.70;100.00;97354.16;4950469;28;20058;-77
2021/11/25 02:30:09;;;;;;;51.65;22.75;;;;;;;-1.62;100.00;97354.53;4971159;28;20507;-77
2021/11/25 02:32:41;;;;;;;48.20;22.42;;;;;;;-1.59;100.00;97354.03;4987623;28;20046;-78
2021/11/25 02:35:17;;;;;;;46.67;22.40;;;;;;;-1.59;100.00;97354.03;4977249;28;20651;-78
2021/11/25 02:37:44;;;;;;;51.53;22.77;;;;;;;-1.55;100.00;97355.16;4975696;28;20101;-77
2021/11/25 02:40:33;;;;;;;49.83;22.40;;;;;;;-1.53;100.00;97349.63;4976133;28;20043;-77
2021/11/25 02:43:02;;;;;;;48.40;22.23;;;;;;;-1.56;100.00;97347.44;4972967;28;20039;-77
2021/11/25 02:45:30;;;;;;;52.00;23.27;;;;;;;-1.63;100.00;97333.56;4978874;28;20055;-79
2021/11/25 02:47:58;;;;;;;52.75;22.55;;;;;;;-1.52;100.00;97332.63;4990737;28;20055;-78
2021/11/25 02:50:26;;;;;;;47.17;22.05;;;;;;;-1.78;100.00;97326.16;4974398;28;20050;-77
2021/11/25 02:52:52;;;;;;;50.83;22.73;;;;;;;-1.86;100.00;97307.22;4988753;28;20039;-78
2021/11/25 02:55:20;;;;;;;47.30;23.17;;;;;;;-1.81;100.00;97308.09;4973826;28;20047;-78
2021/11/25 02:57:47;;;;;;;49.75;23.27;;;;;;;-1.81;100.00;97312.59;4972509;28;20447;-77
2021/11/25 03:00:22;;;;;;;50.58;23.20;;;;;;;-1.72;100.00;97306.63;4973173;28;20070;-78
2021/11/25 03:03:10;;;;;;;50.97;24.13;;;;;;;-1.73;100.00;97307.66;4972891;28;20043;-77
2021/11/25 03:05:39;;;;;;;46.08;21.10;;;;;;;-1.86;100.00;97310.69;4987198;28;20058;-78
2021/11/25 03:08:07;;;;;;;44.03;21.17;;;;;;;-1.87;100.00;97314.38;4987540;28;20411;-77
2021/11/25 03:10:40;;;;;;;51.47;22.15;;;;;;;-1.81;100.00;97310.75;4972112;28;20051;-77
2021/11/25 03:13:09;;;;;;;53.33;23.33;;;;;;;-1.77;100.00;97311.88;4988090;28;20051;-77
2021/11/25 03:15:37;;;;;;;62.90;24.20;;;;;;;-1.80;100.00;97306.22;4972223;28;20043;-77
2021/11/25 03:18:06;;;;;;;47.33;22.45;;;;;;;-1.87;100.00;97306.41;4987135;28;20350;-78
2021/11/25 03:20:33;;;;;;;46.05;21.73;;;;;;;-1.96;100.00;97307.84;4971498;28;20058;-77
2021/11/25 03:22:59;;;;;;;51.13;23.65;;;;;;;-2.05;100.00;97301.38;4987610;28;20070;-78
2021/11/25 03:25:26;;;;;;;50.58;22.00;;;;;;;-2.15;100.00;97304.69;4972223;28;20046;-78
2021/11/25 03:27:53;;;;;;;47.95;22.40;;;;;;;-2.18;100.00;97307.00;4972290;28;20081;-77
2021/11/25 03:30:20;;;;;;;47.30;21.63;;;;;;;-2.15;100.00;97310.00;4972558;28;20051;-77
2021/11/25 03:32:46;;;;;;;49.72;22.02;;;;;;;-2.23;100.00;97299.78;4972344;28;20046;-78
2021/11/25 03:35:13;;;;;;;51.38;23.73;;;;;;;-2.17;100.00;97306.75;4988375;28;20111;-78
2021/11/25 03:37:40;;;;;;;54.50;24.85;;;;;;;-2.07;100.00;97293.69;4987564;28;20086;-78
2021/11/25 03:40:08;;;;;;;60.22;25.55;;;;;;;-2.05;100.00;97293.44;4973437;28;20051;-78
2021/11/25 03:42:35;;;;;;;50.78;23.83;;;;;;;-1.90;100.00;97298.94;4988492;28;20070;-77
2021/11/25 03:45:04;;;;;;;52.35;24.60;;;;;;;-1.99;100.00;97285.28;4973050;28;20419;-78
2021/11/25 03:47:31;;;;;;;57.75;25.77;;;;;;;-1.96;100.00;97290.09;4989061;28;20070;-78
2021/11/25 03:49:58;;;;;;;56.03;25.45;;;;;;;-1.80;100.00;97293.78;4971716;28;20046;-77
2021/11/25 03:52:24;;;;;;;52.53;24.75;;;;;;;-1.72;100.00;97289.91;4973114;28;20097;-77
2021/11/25 03:54:55;;;;;;;54.58;25.40;;;;;;;-1.71;100.00;97284.38;4978955;28;20046;-77
2021/11/25 03:57:22;;;;;;;54.55;25.13;;;;;;;-1.76;100.00;97284.31;4990563;28;20117;-78
2021/11/25 03:59:50;;;;;;;53.92;24.35;;;;;;;-1.77;100.00;97279.22;4988235;28;20074;-77
2021/11/25 04:02:17;;;;;;;52.47;23.88;;;;;;;-1.78;100.00;97283.72;4988222;28;20035;-77
2021/11/25 04:04:44;;;;;;;52.17;23.27;;;;;;;-1.90;100.00;97264.47;4987107;28;20271;-78
2021/11/25 04:07:11;;;;;;;55.40;23.60;;;;;;;-1.93;100.00;97270.25;4987778;28;20054;-77
2021/11/25 04:09:39;;;;;;;50.03;23.25;;;;;;;-2.08;100.00;97270.03;4987592;28;20436;-77
2021/11/25 04:12:06;;;;;;;58.92;24.58;;;;;;;-2.20;100.00;97264.03;4972216;28;20043;-77
2021/11/25 04:14:35;;;;;;;54.80;23.73;;;;;;;-2.16;100.00;97259.84;4973277;28;20053;-77
2021/11/25 04:17:03;;;;;;;65.57;25.95;;;;;;;-2.13;100.00;97267.31;4987067;28;20082;-77
2021/11/25 04:19:30;;;;;;;56.42;24.63;;;;;;;-2.17;100.00;97260.91;4987205;28;20507;-77
2021/11/25 04:21:57;;;;;;;57.00;23.63;;;;;;;-2.40;100.00;97261.09;4972254;28;20046;-76
2021/11/25 04:24:24;;;;;;;56.13;25.17;;;;;;;-2.27;100.00;97276.66;4975964;28;20055;-77
2021/11/25 04:26:51;;;;;;;54.92;24.67;;;;;;;-2.24;100.00;97263.72;4991818;28;20742;-77
2021/11/25 04:29:18;;;;;;;56.10;24.38;;;;;;;-2.16;100.00;97273.09;4975722;28;20542;-77
2021/11/25 04:37:15;;;;;;;58.22;23.40;;;;;;;-2.04;100.00;97250.75;4976088;28;19926;-77
2021/11/25 04:39:42;;;;;;;55.22;23.75;;;;;;;-2.04;100.00;97266.66;4991567;28;20101;-77
2021/11/25 04:42:10;;;;;;;59.53;25.77;;;;;;;-2.16;100.00;97270.44;4975842;28;20054;-77
2021/11/25 04:44:37;;;;;;;51.33;23.35;;;;;;;-2.63;100.00;97267.31;4992059;28;20043;-77
2021/11/25 04:47:09;;;;;;;49.00;22.40;;;;;;;-2.55;100.00;97254.50;4976217;28;20052;-77
2021/11/25 04:49:37;;;;;;;63.78;26.17;;;;;;;-2.39;100.00;97262.69;4975545;28;20043;-78
2021/11/25 04:52:04;;;;;;;52.60;23.70;;;;;;;-2.56;100.00;97249.44;4992024;28;20555;-77
2021/11/25 04:54:31;;;;;;;52.50;23.88;;;;;;;-2.64;100.00;97250.66;4977184;28;20051;-78
2021/11/25 04:56:57;;;;;;;58.95;24.70;;;;;;;-2.49;100.00;97249.28;4978121;28;20150;-78
2021/11/25 04:59:24;;;;;;;55.22;24.75;;;;;;;-2.57;100.00;97237.22;4975869;28;20078;-77
2021/11/25 05:01:51;;;;;;;54.65;23.90;;;;;;;-2.53;100.00;97241.03;4973941;28;20047;-78
2021/11/25 05:04:17;;;;;;;57.22;25.05;;;;;;;-2.53;100.00;97228.53;4976353;28;20046;-77
2021/11/25 05:06:44;;;;;;;56.03;24.45;;;;;;;-2.45;100.00;97245.09;4990883;28;20126;-78
2021/11/25 05:09:13;;;;;;;57.15;24.38;;;;;;;-2.46;100.00;97227.59;4977122;28;20057;-78
2021/11/25 05:11:42;;;;;;;61.75;25.67;;;;;;;-2.29;100.00;97223.88;4992513;28;20039;-78
2021/11/25 05:14:09;;;;;;;65.10;25.90;;;;;;;-2.21;100.00;97220.81;4978943;28;20105;-78
2021/11/25 05:16:36;;;;;;;54.55;24.42;;;;;;;-2.17;100.00;97208.66;4978444;28;20573;-78
2021/11/25 05:19:02;;;;;;;58.40;25.08;;;;;;;-2.12;100.00;97213.25;4980131;28;20054;-78
2021/11/25 05:21:29;;;;;;;58.38;25.33;;;;;;;-2.17;100.00;97202.59;4995283;28;20097;-77
2021/11/25 05:23:56;;;;;;;52.55;23.17;;;;;;;-2.09;100.00;97204.81;4995702;28;20597;-77
2021/11/25 05:26:25;;;;;;;53.20;23.55;;;;;;;-1.97;100.00;97198.34;4993748;28;20081;-77
2021/11/25 05:28:51;;;;;;;55.58;24.25;;;;;;;-2.06;100.00;97199.81;4978014;28;20066;-78
2021/11/25 05:31:18;;;;;;;49.70;22.63;;;;;;;-2.22;100.00;97191.91;4979377;28;20054;-79
2021/11/25 05:33:45;;;;;;;52.53;24.35;;;;;;;-2.08;100.00;97201.09;4976456;28;20655;-79
2021/11/25 05:36:11;;;;;;;51.63;23.48;;;;;;;-2.23;100.00;97209.66;4977374;28;20065;-79
2021/11/25 05:38:38;;;;;;;54.08;23.65;;;;;;;-2.13;100.00;97203.69;4977949;28;20047;-78
2021/11/25 05:41:05;;;;;;;50.53;22.98;;;;;;;-1.90;100.00;97198.16;4978400;28;20056;-77
2021/11/25 05:43:32;;;;;;;55.85;24.48;;;;;;;-1.73;100.00;97200.75;4995193;28;20042;-77
2021/11/25 05:45:59;;;;;;;59.65;26.10;;;;;;;-1.45;100.00;97208.53;4994557;28;20046;-77
2021/11/25 05:48:27;;;;;;;63.58;27.00;;;;;;;-1.61;100.00;97196.94;4994361;28;20475;-78
2021/11/25 05:50:54;;;;;;;54.65;24.70;;;;;;;-1.44;100.00;97187.03;4977870;28;20647;-77
2021/11/25 05:53:23;;;;;;;56.78;23.23;;;;;;;-1.56;100.00;97188.22;4977685;28;20108;-78
2021/11/25 05:55:50;;;;;;;62.50;25.17;;;;;;;-1.95;100.00;97190.13;4993060;28;20050;-78
2021/11/25 05:58:17;;;;;;;58.55;24.70;;;;;;;-1.60;100.00;97195.84;4993145;28;20085;-78
2021/11/25 06:00:43;;;;;;;56.80;24.13;;;;;;;-1.31;100.00;97194.59;4976912;28;20061;-77
2021/11/25 06:03:10;;;;;;;54.92;24.35;;;;;;;-1.14;100.00;97191.06;4976572;28;20098;-77
2021/11/25 06:05:37;;;;;;;56.65;24.52;;;;;;;-0.99;100.00;97183.22;4994419;28;20149;-77
2021/11/25 06:08:04;;;;;;;59.00;26.02;;;;;;;-1.20;100.00;97184.06;4977556;28;20640;-78
2021/11/25 06:10:31;;;;;;;63.40;26.33;;;;;;;-1.23;100.00;97192.53;4994479;28;20053;-78
2021/11/25 06:12:59;;;;;;;61.33;25.08;;;;;;;-1.08;100.00;97184.72;4995575;28;20050;-78
2021/11/25 06:15:26;;;;;;;64.72;25.27;;;;;;;-1.09;100.00;97169.84;4977421;28;20054;-77
2021/11/25 06:17:53;;;;;;;60.97;25.30;;;;;;;-1.04;100.00;97172.56;4977942;28;20054;-78
2021/11/25 06:20:21;;;;;;;53.58;23.95;;;;;;;-1.16;100.00;97182.53;4976510;28;20129;-78
2021/11/25 06:22:50;;;;;;;50.55;23.35;;;;;;;-1.05;100.00;97178.91;4975024;28;20089;-77
2021/11/25 06:25:20;;;;;;;54.25;22.80;;;;;;;-0.80;100.00;97179.91;4975649;28;20050;-77
2021/11/25 06:27:47;;;;;;;63.65;24.52;;;;;;;-0.65;100.00;97181.91;4991707;28;20221;-77
2021/11/25 06:30:16;;;;;;;55.78;25.83;;;;;;;-0.63;100.00;97187.78;4989370;28;20054;-77
2021/11/25 06:32:46;;;;;;;65.00;27.13;;;;;;;-0.49;100.00;97174.84;4993038;28;20112;-78
2021/11/25 06:35:15;;;;;;;61.20;25.55;;;;;;;-0.62;100.00;97184.06;4969374;28;20491;-77
2021/11/25 06:37:50;;;;;;;62.05;27.23;;;;;;;-0.44;100.00;97180.97;4972815;28;20050;-78
2021/11/25 06:40:18;;;;;;;;;;;;;;;-0.42;100.00;97183.41;4979732;28;20058;-78
2021/11/25 06:42:45;;;;;;;58.47;24.85;;;;;;;-0.32;100.00;97183.47;4971371;28;19922;-78
2021/11/25 06:45:12;;;;;;;57.13;24.92;;;;;;;-0.16;100.00;97180.66;4984960;28;20673;-78
2021/11/25 06:47:39;;;;;;;56.90;25.73;;;;;;;-0.31;100.00;97179.75;4972724;28;20779;-79
2021/11/25 06:50:09;;;;;;;57.53;25.88;;;;;;;-0.17;100.00;97180.91;4990388;28;20066;-79
2021/11/25 06:52:37;;;;;;;53.28;24.65;;;;;;;-0.21;100.00;97170.00;4995262;28;20077;-77
2021/11/25 06:55:05;;;;;;;65.30;27.00;;;;;;;-0.07;100.00;97191.59;4976037;28;20058;-78
2021/11/25 06:57:32;;;;;;;67.50;29.58;;;;;;;-0.12;100.00;97184.38;4968987;28;20042;-78
2021/11/25 07:00:24;;;;;;;61.42;29.23;;;;;;;-0.14;100.00;97167.09;4981735;28;20053;-79
2021/11/25 07:03:42;;;;;;;65.30;29.35;;;;;;;0.01;100.00;97156.53;4940815;28;20038;-77
2021/11/25 07:06:46;;;;;;;66.78;29.00;;;;;;;0.20;100.00;97178.16;4940580;28;20070;-78
2021/11/25 07:09:26;;;;;;;64.97;27.77;;;;;;;0.15;100.00;97165.66;4972962;28;20046;-78
2021/11/25 07:12:02;;;;;;;67.10;26.98;;;;;;;0.15;100.00;97168.31;4961701;28;20054;-78
2021/11/25 07:14:42;;;;;;;67.10;27.50;;;;;;;0.45;100.00;97203.03;4963011;28;20130;-78
2021/11/25 07:17:24;;;;;;;;;;;;;;;;;;;;;
2021/11/25 07:20:21;;;;;;;72.93;29.48;;;;;;;0.54;100.00;97163.38;4952681;28;20043;-77
2021/11/25 07:23:31;;;;;;;65.43;28.15;;;;;;;0.48;100.00;97175.06;4952964;28;20051;-77
2021/11/25 07:26:23;;;;;;;75.82;29.38;;;;;;;0.48;100.00;97183.06;4965981;28;20155;-78
2021/11/25 07:29:28;;;;;;;72.82;30.52;;;;;;;0.53;100.00;97194.53;4951494;28;20046;-78
2021/11/25 07:32:17;;;;;;;70.53;28.73;;;;;;;0.82;100.00;97197.53;4957763;28;20170;-78
2021/11/25 07:34:49;;;;;;;77.63;30.95;;;;;;;0.76;100.00;97184.47;4957508;28;20090;-79
2021/11/25 07:37:47;;;;;;;69.15;29.02;;;;;;;0.74;100.00;97190.06;4951560;28;20058;-79
2021/11/25 07:40:24;;;;;;;75.75;30.30;;;;;;;0.84;100.00;97197.28;4958471;29;20058;-79
2021/11/25 07:43:14;;;;;;;73.55;28.70;;;;;;;0.61;100.00;97171.91;4969073;28;20045;-79
2021/11/25 07:45:50;;;;;;;61.40;26.63;;;;;;;0.74;100.00;97183.94;4972971;28;20051;-79
2021/11/25 07:48:17;;;;;;;60.90;27.00;;;;;;;0.55;100.00;97175.63;4957529;28;20472;-79
2021/11/25 07:51:07;;;;;;;64.30;26.05;;;;;;;0.70;100.00;97143.69;4958636;28;20043;-79
2021/11/25 07:53:39;;;;;;;59.88;26.45;;;;;;;0.91;100.00;97149.84;4959577;28;20078;-79
2021/11/25 07:56:09;;;;;;;60.75;27.55;;;;;;;1.14;100.00;97181.31;4957060;28;20055;-78
2021/11/25 07:59:06;;;;;;;59.72;27.65;;;;;;;1.23;100.00;97175.22;4960743;28;20059;-79
2021/11/25 08:01:42;;;;;;;56.08;27.15;;;;;;;1.12;100.00;97149.59;4971601;28;20051;-79
2021/11/25 08:04:15;;;;;;;55.13;28.35;;;;;;;1.45;100.00;97168.78;4957847;28;20272;-78
2021/11/25 08:08:00;;;;;;;;;;;;;;;;;;;;;
2021/11/25 08:10:55;;;;;;;59.92;29.70;;;;;;;1.72;100.00;97169.31;4970334;28;20043;-79
2021/11/25 08:13:28;;;;;;;58.65;29.65;;;;;;;1.55;100.00;97152.81;4972378;28;20061;-78
2021/11/25 08:16:14;;;;;;;55.03;28.90;;;;;;;1.58;100.00;97181.59;4976808;28;20422;-78
2021/11/25 08:18:45;;;;;;;52.55;27.92;;;;;;;1.42;100.00;97145.34;4978849;28;20051;-78
2021/11/25 08:21:19;;;;;;;52.05;28.30;;;;;;;1.44;100.00;97133.34;4992676;28;20043;-78
2021/11/25 08:24:34;;;;;;;52.08;27.13;;;;;;;1.74;100.00;97161.81;4995136;28;20468;-78
2021/11/25 08:32:24;;;;;;;49.53;27.10;;;;;;;1.62;100.00;97145.31;4899366;29;20133;-78
2021/11/25 08:35:08;;;;;;;48.88;26.75;;;;;;;1.54;100.00;97141.31;4931333;29;20044;-78
2021/11/25 08:37:59;;;;;;;47.92;26.35;;;;;;;1.59;100.00;97133.31;4937348;29;20076;-78
2021/11/25 08:40:32;;;;;;;45.35;26.77;;;;;;;1.68;100.00;97149.56;4937691;29;20519;-79
2021/11/25 08:43:35;;;;;;;46.42;26.92;;;;;;;1.60;100.00;97136.78;4931232;29;20055;-78
2021/11/25 08:46:46;;;;;;;;;;;;;;;;;;;;;
2021/11/25 08:49:21;;;;;;;48.75;27.95;;;;;;;1.71;100.00;97157.03;4927971;29;20044;-78
2021/11/25 08:51:49;;;;;;;51.60;28.45;;;;;;;1.91;100.00;97177.53;4926296;29;20052;-79
2021/11/25 08:54:24;;;;;;;45.90;27.17;;;;;;;1.78;100.00;97166.34;4930229;29;20083;-78
2021/11/25 08:56:54;;;;;;;48.22;27.80;;;;;;;1.87;100.00;97182.63;4938800;29;20504;-79
2021/11/25 08:59:28;;;;;;;53.42;28.35;;;;;;;1.92;100.00;97171.94;4939758;29;20055;-79
2021/11/25 09:02:38;;;;;;;;;;;;;;;;;;;;;
2021/11/25 09:05:34;;;;;;;;;;;;;;;;;;;;;
2021/11/25 09:08:37;;;;;;;45.92;25.83;;;;;;;1.99;100.00;97167.09;4899000;29;20041;-79
2021/11/25 09:12:21;;;;;;;43.63;25.15;;;;;;;2.02;100.00;97142.53;4881286;29;20052;-79
2021/11/25 09:15:19;;;;;;;40.15;23.38;;;;;;;1.80;100.00;97126.06;4892685;29;20052;-78
2021/11/25 09:18:37;;;;;;;42.20;23.40;;;;;;;1.95;100.00;97118.00;4902319;29;20054;-79
2021/11/25 09:21:07;;;;;;;42.83;24.50;;;;;;;1.85;100.00;97128.72;4903694;29;20055;-80
2021/11/25 09:24:24;;;;;;;43.85;23.08;;;;;;;1.99;100.00;97150.31;4902714;29;20108;-79
2021/11/25 09:27:03;;;;;;;38.08;22.00;;;;;;;1.92;100.00;97137.22;4898993;29;20059;-78
2021/11/25 09:29:32;;;;;;;41.80;23.42;;;;;;;1.87;100.00;97114.03;4885017;29;20108;-78
2021/11/25 09:31:59;;;;;;;39.70;22.60;;;;;;;2.01;100.00;97140.94;4887518;29;20616;-79
2021/11/25 09:34:26;;;;;;;35.92;21.27;;;;;;;1.92;100.00;97118.56;4922785;29;20048;-79
2021/11/25 09:36:53;;;;;;;40.60;21.90;;;;;;;1.96;100.00;97094.78;4920467;29;20047;-79
2021/11/25 09:39:34;;;;;;;38.95;22.23;;;;;;;2.03;100.00;97130.81;4920448;29;20060;-79
2021/11/25 09:42:00;;;;;;;37.88;21.60;;;;;;;1.94;100.00;97095.06;4929797;29;20084;-80
2021/11/25 09:44:27;;;;;;;34.78;20.40;;;;;;;1.96;100.00;97119.63;4942317;29;20428;-79
2021/11/25 09:46:57;;;;;;;35.63;20.00;;;;;;;2.03;100.00;97124.66;4941264;29;20500;-80
2021/11/25 09:49:26;;;;;;;41.25;21.17;;;;;;;1.99;100.00;97112.94;4941821;29;20059;-78
2021/11/25 09:51:58;;;;;;;39.50;22.20;;;;;;;2.01;100.00;97103.59;4942174;29;20181;-80
2021/11/25 09:54:25;;;;;;;37.88;20.95;;;;;;;2.00;100.00;97099.31;4942514;29;20152;-79
2021/11/25 09:59:58;;;;;;;35.78;20.83;;;;;;;1.95;100.00;97075.31;4983975;28;20047;-78
2021/11/25 10:02:57;;;;;;;38.00;21.58;;;;;;;1.98;100.00;97072.09;4981996;28;20038;-80
2021/11/25 10:05:24;;;;;;;36.65;21.33;;;;;;;1.90;100.00;97062.00;4968035;28;20038;-77
2021/11/25 10:08:34;;;;;;;41.10;22.17;;;;;;;2.05;100.00;97095.81;4973058;28;20058;-78
2021/11/25 10:11:11;;;;;;;41.22;23.23;;;;;;;2.04;100.00;97102.25;4973105;28;20081;-78
2021/11/25 10:14:15;;;;;;;40.08;22.77;;;;;;;2.14;100.00;97099.53;4974072;28;20106;-78
2021/11/25 10:21:21;;;;;;;39.78;21.85;;;;;;;2.18;100.00;97092.56;4860812;29;20219;-79
2021/11/25 10:24:05;;;;;;;42.70;22.58;;;;;;;1.91;100.00;97065.47;4944903;28;20058;-79
2021/11/25 10:35:27;;;;;;;39.38;21.20;;;;;;;2.15;100.00;97087.75;4857581;29;20049;-77
2021/11/25 10:40:38;;;;;;;39.20;21.33;;;;;;;1.95;100.00;97053.16;4967978;28;20090;-77
2021/11/25 10:46:55;;;;;;;39.25;20.65;;;;;;;2.05;100.00;97069.91;4973145;28;20066;-77
2021/11/25 10:50:03;;;;;;;;;;;;;;;;;;;;;
2021/11/25 10:52:57;;;;;;;42.75;22.48;;;;;;;2.17;100.00;97046.38;4973150;28;20050;-79
2021/11/25 10:55:41;;;;;;;40.03;21.38;;;;;;;2.24;100.00;97064.75;4972017;28;20047;-79
2021/11/25 10:58:11;;;;;;;41.80;21.63;;;;;;;2.32;100.00;97072.19;4975114;28;20058;-79
2021/11/25 11:01:07;;;;;;;38.22;21.20;;;;;;;2.27;100.00;97056.97;4976932;28;20067;-79
2021/11/25 11:04:16;;;;;;;39.80;21.33;;;;;;;2.41;100.00;97068.66;4929951;29;20056;-79
2021/11/25 11:07:45;;;;;;;40.05;21.55;;;;;;;2.48;100.00;97061.13;4936780;29;20032;-78
2021/11/25 11:10:51;;;;;;;41.63;21.08;;;;;;;2.59;100.00;97027.13;4903754;29;20154;-78
2021/11/25 11:13:49;;;;;;;40.95;21.38;;;;;;;2.68;100.00;97041.50;4906145;29;20051;-78
2021/11/25 11:16:31;;;;;;;38.55;21.40;;;;;;;2.70;100.00;97009.97;4966605;28;20057;-79
2021/11/25 11:22:28;;;;;;;39.78;20.60;;;;;;;2.86;100.00;97002.63;4943558;29;20106;-79
2021/11/25 11:25:23;;;;;;;38.78;20.67;;;;;;;3.00;100.00;97022.25;4966423;28;20125;-78
2021/11/25 11:28:56;;;;;;;37.88;20.33;;;;;;;2.79;100.00;97034.19;4968718;28;20503;-79
2021/11/25 11:35:44;;;;;;;37.60;19.60;;;;;;;2.68;100.00;97040.72;4986516;23;21116;-84
2021/11/25 11:38:14;;;;;;;37.55;19.98;;;;;;;2.89;100.00;97040.25;4956167;28;20097;-84
2021/11/25 11:40:43;;;;;;;40.17;20.90;;;;;;;2.71;100.00;97024.91;4954262;28;20078;-84
2021/11/25 11:43:11;;;;;;;37.80;20.70;;;;;;;2.62;100.00;97033.81;4972737;28;20054;-87
2021/11/25 11:45:39;;;;;;;39.67;20.45;;;;;;;2.72;100.00;97031.03;4974800;28;20101;-84
2021/11/25 11:48:11;;;;;;;42.42;21.65;;;;;;;2.83;100.00;97027.22;4977320;28;20054;-83
2021/11/25 11:50:42;;;;;;;39.08;20.50;;;;;;;2.57;100.00;97001.78;4954205;28;20093;-85
2021/11/25 11:53:19;;;;;;;37.75;20.00;;;;;;;2.88;100.00;97036.00;4969424;28;20055;-87
2021/11/25 11:56:08;;;;;;;41.72;20.90;;;;;;;2.67;100.00;97028.41;4943083;29;20047;-84
2021/11/25 11:58:40;;;;;;;38.95;20.77;;;;;;;2.81;100.00;97038.22;4962493;29;20051;-87
2021/11/25 12:01:16;;;;;;;37.53;19.40;;;;;;;2.81;100.00;97024.03;4957810;28;20102;-85
2021/11/25 12:03:43;;;;;;;35.30;19.25;;;;;;;2.69;100.00;97020.91;4952176;28;20406;-84
2021/11/25 12:06:11;;;;;;;41.05;21.27;;;;;;;2.69;100.00;97007.56;4975509;28;20651;-80
2021/11/25 12:08:38;;;;;;;42.42;21.05;;;;;;;2.85;100.00;96990.31;4959368;28;20495;-84
2021/11/25 12:11:10;;;;;;;38.72;20.13;;;;;;;2.99;100.00;96988.59;4958675;28;20102;-86
2021/11/25 12:13:38;;;;;;;38.28;19.63;;;;;;;3.10;100.00;96990.06;4979779;28;20086;-86
2021/11/25 12:16:20;;;;;;;38.25;20.27;;;;;;;3.19;100.00;96993.75;4962174;28;20135;-87
2021/11/25 12:18:56;;;;;;;36.97;20.90;;;;;;;2.82;100.00;96966.81;4965268;28;20050;-86
2021/11/25 12:21:54;;;;;;;40.03;19.90;;;;;;;2.79;100.00;96968.19;4955635;28;20508;-85
2021/11/25 12:24:48;;;;;;;37.15;19.55;;;;;;;2.93;100.00;96971.00;4951063;28;20054;-84
2021/11/25 12:27:39;;;;;;;38.75;20.48;;;;;;;2.55;100.00;96934.47;4958788;28;20074;-86
2021/11/25 12:30:11;;;;;;;40.92;21.55;;;;;;;2.50;100.00;96930.00;4978119;28;20199;-86
2021/11/25 12:32:45;;;;;;;38.03;20.40;;;;;;;2.59;100.00;96978.25;4961838;28;20058;-85
2021/11/25 12:35:12;;;;;;;40.95;21.00;;;;;;;2.53;100.00;96963.34;4958239;28;20051;-86
2021/11/25 12:37:41;;;;;;;42.45;21.38;;;;;;;2.58;100.00;96972.13;4978915;28;20055;-84
2021/11/25 12:40:28;;;;;;;44.20;21.20;;;;;;;2.55;100.00;96970.00;4979783;28;20069;-84
2021/11/25 12:43:11;;;;;;;39.90;20.52;;;;;;;2.80;100.00;96974.34;4956314;28;20050;-84